Time;durP1;ratioP1;P1;durP2;ratioP2;P2;SDS_P1;SDS_P2;PMS_P1;PMS_P2;Temp;Humidity;BMP_temperature;BMP_pressure;BME280_temperature;BME280_humidity;BME280_pressure;Samples;Min_cycle;Max_cycle;Signal;HPM_P1;HPM_P2
2021/09/17 00:00:11;;;;;;;5.10;2.83;;;19.80;84.20;;;;;;5030295;28;20033;-73
2021/09/17 00:02:36;;;;;;;5.38;2.70;;;19.80;83.30;;;;;;5013293;28;20044;-73
2021/09/17 00:05:04;;;;;;;6.53;2.90;;;19.80;83.50;;;;;;5031120;28;20494;-73
2021/09/17 00:07:29;;;;;;;5.75;3.00;;;19.80;84.10;;;;;;5013355;28;20071;-73
2021/09/17 00:09:55;;;;;;;5.82;2.75;;;19.80;83.20;;;;;;5012854;28;20056;-72
2021/09/17 00:12:20;;;;;;;5.53;2.83;;;19.80;83.50;;;;;;5013586;28;20487;-72
2021/09/17 00:14:46;;;;;;;7.78;2.90;;;19.80;83.50;;;;;;5030930;28;20112;-72
2021/09/17 00:17:12;;;;;;;6.32;3.00;;;19.80;83.70;;;;;;5013202;28;20112;-73
2021/09/17 00:19:38;;;;;;;7.07;2.88;;;19.80;83.30;;;;;;5013063;28;20030;-73
2021/09/17 00:22:04;;;;;;;7.65;2.63;;;19.80;83.90;;;;;;5012719;28;20494;-72
2021/09/17 00:24:30;;;;;;;7.00;2.88;;;19.70;84.20;;;;;;5030054;28;20037;-72
2021/09/17 00:26:55;;;;;;;5.50;2.75;;;19.80;83.60;;;;;;5030446;28;20025;-72
2021/09/17 00:29:21;;;;;;;5.78;2.50;;;19.70;83.50;;;;;;5031955;28;20031;-73
2021/09/17 00:31:46;;;;;;;6.00;2.80;;;19.70;83.70;;;;;;5016959;28;20021;-72
2021/09/17 00:34:12;;;;;;;6.00;3.22;;;19.70;83.20;;;;;;5017416;28;20033;-72
2021/09/17 00:36:37;;;;;;;6.25;3.03;;;19.80;83.60;;;;;;5017112;28;20487;-72
2021/09/17 00:39:04;;;;;;;6.03;2.65;;;19.80;83.20;;;;;;5034077;28;20519;-72
2021/09/17 00:41:29;;;;;;;5.45;2.60;;;19.70;83.30;;;;;;5016294;28;20144;-73
2021/09/17 00:43:55;;;;;;;4.80;2.60;;;19.70;83.40;;;;;;5034513;28;20104;-73
2021/09/17 00:46:21;;;;;;;7.03;2.92;;;19.70;83.10;;;;;;5016302;28;20032;-73
2021/09/17 00:48:46;;;;;;;5.97;2.70;;;19.70;83.30;;;;;;5016268;28;20029;-73
2021/09/17 00:51:12;;;;;;;7.45;2.83;;;19.70;83.10;;;;;;5015329;28;20525;-73
2021/09/17 00:53:38;;;;;;;4.97;2.53;;;19.70;83.10;;;;;;5032854;28;20487;-73
2021/09/17 00:56:04;;;;;;;5.10;2.63;;;19.70;82.70;;;;;;5016445;28;20036;-72
2021/09/17 00:58:30;;;;;;;4.93;2.65;;;19.70;83.00;;;;;;5032900;28;20036;-73
2021/09/17 01:00:57;;;;;;;4.22;2.25;;;19.70;82.60;;;;;;5033971;28;20037;-73
2021/09/17 01:03:23;;;;;;;5.45;2.58;;;19.70;82.90;;;;;;5033967;28;20020;-73
2021/09/17 01:05:49;;;;;;;8.13;2.50;;;19.70;82.60;;;;;;5016744;28;20026;-73
2021/09/17 01:08:15;;;;;;;7.03;3.05;;;19.70;82.90;;;;;;5015809;28;20028;-72
2021/09/17 01:10:42;;;;;;;6.03;2.75;;;19.70;83.00;;;;;;5033954;28;20034;-72
2021/09/17 01:13:08;;;;;;;4.65;2.55;;;19.70;83.10;;;;;;5033839;28;20052;-73
2021/09/17 01:15:34;;;;;;;5.20;2.70;;;19.70;82.80;;;;;;5033522;28;20037;-73
2021/09/17 01:17:59;;;;;;;5.60;2.83;;;19.70;83.00;;;;;;5016148;28;20506;-73
2021/09/17 01:20:25;;;;;;;5.95;2.85;;;19.70;83.20;;;;;;5016582;28;20513;-73
2021/09/17 01:22:51;;;;;;;6.85;2.80;;;19.70;82.90;;;;;;5015060;28;20075;-73
2021/09/17 01:25:20;;;;;;;5.78;2.95;;;19.70;82.60;;;;;;5015891;28;20017;-72
2021/09/17 01:27:48;;;;;;;6.95;2.90;;;19.70;82.50;;;;;;5015525;28;20072;-72
2021/09/17 01:30:15;;;;;;;5.30;2.83;;;19.70;82.50;;;;;;5015829;28;20140;-73
2021/09/17 01:32:41;;;;;;;6.45;3.10;;;19.70;82.60;;;;;;5016458;28;20076;-72
2021/09/17 01:35:12;;;;;;;5.75;2.85;;;19.70;82.30;;;;;;5016266;28;20037;-72
2021/09/17 01:37:38;;;;;;;6.72;2.95;;;19.70;83.00;;;;;;5033242;28;20025;-73
2021/09/17 01:40:05;;;;;;;6.00;3.10;;;19.70;82.90;;;;;;5033265;28;20099;-72
2021/09/17 01:42:31;;;;;;;5.63;3.05;;;19.70;82.70;;;;;;5033102;28;20053;-73
2021/09/17 01:44:57;;;;;;;6.18;3.08;;;19.70;82.20;;;;;;5033338;28;20064;-71
2021/09/17 01:47:22;;;;;;;5.32;2.58;;;19.70;82.60;;;;;;5015682;28;20490;-73
2021/09/17 01:49:48;;;;;;;4.82;2.70;;;19.70;82.40;;;;;;5015642;28;20666;-73
2021/09/17 01:52:13;;;;;;;5.68;3.03;;;19.70;82.00;;;;;;5032981;28;20057;-73
2021/09/17 01:54:41;;;;;;;6.53;2.92;;;19.70;82.60;;;;;;5015519;28;20040;-72
2021/09/17 01:57:06;;;;;;;5.90;2.90;;;19.70;82.00;;;;;;5015463;28;20384;-72
2021/09/17 01:59:32;;;;;;;5.25;2.85;;;19.70;82.40;;;;;;5014867;28;20030;-72
2021/09/17 02:01:58;;;;;;;5.85;3.17;;;19.70;81.90;;;;;;5015370;28;20033;-73
2021/09/17 02:04:23;;;;;;;5.65;3.30;;;19.70;81.90;;;;;;5015275;28;20021;-72
2021/09/17 02:06:49;;;;;;;5.30;3.15;;;19.70;82.60;;;;;;5032519;28;20025;-73
2021/09/17 02:09:14;;;;;;;5.40;3.20;;;19.70;82.20;;;;;;5014971;28;20030;-73
2021/09/17 02:11:40;;;;;;;6.65;3.40;;;19.70;81.80;;;;;;5015277;28;20026;-73
2021/09/17 02:14:06;;;;;;;6.75;3.22;;;19.70;82.20;;;;;;5032613;28;20033;-72
2021/09/17 02:16:32;;;;;;;6.63;3.00;;;19.70;81.60;;;;;;5032762;28;20087;-73
2021/09/17 02:18:57;;;;;;;5.93;3.25;;;19.70;81.80;;;;;;5018948;28;20033;-73
2021/09/17 02:21:23;;;;;;;6.10;3.30;;;19.70;82.00;;;;;;5026578;28;20029;-73
2021/09/17 02:23:49;;;;;;;6.45;3.20;;;19.70;81.80;;;;;;5032607;28;20026;-73
2021/09/17 02:26:16;;;;;;;5.88;3.33;;;19.70;82.00;;;;;;5032705;28;20075;-72
2021/09/17 02:28:43;;;;;;;5.80;3.45;;;19.60;81.70;;;;;;5014225;28;20426;-73
2021/09/17 02:31:08;;;;;;;5.35;3.00;;;19.70;81.80;;;;;;5032782;28;20021;-73
2021/09/17 02:33:34;;;;;;;7.03;3.78;;;19.60;81.70;;;;;;5032463;28;20124;-71
2021/09/17 02:36:00;;;;;;;6.00;3.30;;;19.70;81.60;;;;;;5032382;28;20387;-73
2021/09/17 02:38:26;;;;;;;7.65;3.47;;;19.70;82.00;;;;;;5032487;28;20017;-73
2021/09/17 02:40:52;;;;;;;6.07;3.35;;;19.60;81.40;;;;;;5014933;28;20026;-72
2021/09/17 02:43:17;;;;;;;6.25;3.55;;;19.60;81.50;;;;;;5014329;28;20094;-73
2021/09/17 02:45:43;;;;;;;5.85;2.97;;;19.70;81.50;;;;;;5014698;28;20029;-73
2021/09/17 02:48:08;;;;;;;6.53;3.60;;;19.70;81.30;;;;;;5013984;28;20031;-72
2021/09/17 02:50:34;;;;;;;5.88;3.13;;;19.60;81.50;;;;;;5014177;28;20538;-74
2021/09/17 02:52:59;;;;;;;6.97;3.33;;;19.70;81.50;;;;;;5028102;28;20045;-73
2021/09/17 02:55:25;;;;;;;6.07;3.20;;;19.70;82.40;;;;;;5019497;28;20040;-72
2021/09/17 02:57:51;;;;;;;6.53;3.10;;;19.70;82.00;;;;;;5003367;28;20025;-72
2021/09/17 03:00:20;;;;;;;7.18;3.10;;;19.70;82.00;;;;;;5005329;28;20712;-73
2021/09/17 03:02:46;;;;;;;10.10;3.22;;;19.70;82.10;;;;;;5008584;28;21017;-73
2021/09/17 03:05:12;;;;;;;7.07;3.08;;;19.70;82.40;;;;;;5004505;28;20035;-73
2021/09/17 03:07:38;;;;;;;7.85;3.00;;;19.70;82.00;;;;;;5024001;28;20037;-73
2021/09/17 03:10:05;;;;;;;6.35;2.95;;;19.70;82.60;;;;;;5015572;28;20029;-73
2021/09/17 03:12:30;;;;;;;5.90;2.88;;;19.70;82.50;;;;;;5004005;28;20104;-73
2021/09/17 03:14:56;;;;;;;6.72;3.00;;;19.70;82.50;;;;;;4999624;28;20042;-73
2021/09/17 03:17:21;;;;;;;6.88;3.13;;;19.70;82.40;;;;;;5020353;28;20034;-72
2021/09/17 03:19:47;;;;;;;5.63;2.83;;;19.70;82.70;;;;;;4988306;28;20052;-72
2021/09/17 03:22:13;;;;;;;6.00;2.60;;;19.70;82.80;;;;;;5017781;28;20038;-71
2021/09/17 03:24:38;;;;;;;8.80;2.95;;;19.70;82.80;;;;;;5007509;28;20033;-73
2021/09/17 03:27:04;;;;;;;9.20;3.38;;;19.70;82.70;;;;;;5026050;28;20625;-71
2021/09/17 03:29:29;;;;;;;9.15;3.33;;;19.70;82.90;;;;;;5027405;28;20036;-73
2021/09/17 03:31:55;;;;;;;10.95;3.03;;;19.70;83.10;;;;;;5031468;28;20026;-74
2021/09/17 03:34:21;;;;;;;11.07;3.45;;;19.70;83.60;;;;;;5031798;28;20072;-72
2021/09/17 03:36:46;;;;;;;10.27;3.55;;;19.70;82.40;;;;;;5030903;28;20104;-73
2021/09/17 03:39:13;;;;;;;9.88;3.80;;;19.70;82.60;;;;;;5013891;28;20030;-73
2021/09/17 03:41:40;;;;;;;9.18;3.75;;;19.60;82.50;;;;;;5013126;28;20450;-73
2021/09/17 03:44:06;;;;;;;9.77;4.00;;;19.70;82.90;;;;;;5013295;28;20155;-74
2021/09/17 03:46:32;;;;;;;8.45;4.47;;;19.70;82.80;;;;;;5031008;28;20101;-72
2021/09/17 03:48:57;;;;;;;8.30;4.20;;;19.70;82.20;;;;;;5031412;28;20025;-72
2021/09/17 03:51:24;;;;;;;8.90;3.72;;;19.70;82.00;;;;;;5011447;28;20252;-74
2021/09/17 03:53:50;;;;;;;6.78;3.92;;;19.60;82.40;;;;;;5013889;28;20034;-74
2021/09/17 03:56:15;;;;;;;12.65;3.75;;;19.70;82.60;;;;;;5013213;28;20061;-73
2021/09/17 03:58:41;;;;;;;7.13;3.63;;;19.60;82.60;;;;;;5031022;28;20465;-73
2021/09/17 04:01:06;;;;;;;9.18;4.28;;;19.60;82.30;;;;;;5013084;28;20029;-73
2021/09/17 04:03:32;;;;;;;12.18;4.20;;;19.60;81.80;;;;;;5030965;28;20437;-73
2021/09/17 04:05:57;;;;;;;8.75;4.05;;;19.60;82.10;;;;;;5030006;28;20402;-73
2021/09/17 04:08:23;;;;;;;7.90;4.20;;;19.60;82.00;;;;;;5030534;28;20032;-74
2021/09/17 04:10:48;;;;;;;6.80;4.03;;;19.60;81.40;;;;;;5028751;28;20517;-73
2021/09/17 04:13:14;;;;;;;8.80;4.22;;;19.60;81.60;;;;;;5030543;28;20113;-74
2021/09/17 04:15:40;;;;;;;8.43;4.72;;;19.60;81.50;;;;;;5031168;28;20132;-73
2021/09/17 04:18:05;;;;;;;8.80;5.20;;;19.60;80.70;;;;;;5011279;28;20029;-73
2021/09/17 04:20:31;;;;;;;7.95;4.35;;;19.60;81.00;;;;;;5012969;28;20025;-73
2021/09/17 04:22:56;;;;;;;8.77;4.55;;;19.60;81.10;;;;;;5030023;28;20028;-74
2021/09/17 04:25:22;;;;;;;8.23;4.75;;;19.60;81.30;;;;;;5013245;28;20017;-73
2021/09/17 04:27:47;;;;;;;6.35;4.13;;;19.60;81.40;;;;;;5010992;28;20076;-74
2021/09/17 04:30:15;;;;;;;9.48;4.93;;;19.60;81.50;;;;;;5030147;28;20028;-73
2021/09/17 04:32:44;;;;;;;8.05;4.25;;;19.60;81.10;;;;;;5021410;28;20021;-74
2021/09/17 04:35:11;;;;;;;10.48;5.13;;;19.60;81.50;;;;;;5006894;28;20033;-73
2021/09/17 04:37:45;;;;;;;8.10;4.68;;;19.60;81.10;;;;;;5013236;28;20026;-74
2021/09/17 04:40:13;;;;;;;8.43;4.85;;;19.60;81.40;;;;;;5011868;28;20025;-74
2021/09/17 04:42:39;;;;;;;7.97;5.05;;;19.50;81.30;;;;;;5030234;28;20537;-73
2021/09/17 04:45:05;;;;;;;11.40;5.10;;;19.60;81.50;;;;;;5012931;28;20034;-74
2021/09/17 04:47:31;;;;;;;8.88;5.22;;;19.60;81.50;;;;;;5030127;28;20032;-73
2021/09/17 04:49:59;;;;;;;9.77;5.25;;;19.70;82.00;;;;;;5011704;28;20487;-73
2021/09/17 04:52:25;;;;;;;13.48;5.40;;;19.70;81.90;;;;;;5012764;28;20510;-72
2021/09/17 04:54:51;;;;;;;12.55;4.82;;;19.70;82.40;;;;;;5030073;28;20042;-73
2021/09/17 04:57:17;;;;;;;12.23;5.40;;;19.70;82.30;;;;;;5030346;28;20487;-73
2021/09/17 04:59:42;;;;;;;11.55;5.50;;;19.80;82.40;;;;;;5030677;28;20033;-73
2021/09/17 05:02:08;;;;;;;13.32;5.43;;;19.80;81.90;;;;;;5012828;28;20021;-74
2021/09/17 05:04:33;;;;;;;13.15;6.13;;;19.70;82.10;;;;;;5012153;28;20022;-73
2021/09/17 05:06:59;;;;;;;14.05;5.70;;;19.70;81.80;;;;;;5013116;28;20067;-73
2021/09/17 05:09:25;;;;;;;16.38;5.60;;;19.70;82.00;;;;;;5030607;28;20025;-73
2021/09/17 05:11:50;;;;;;;9.32;5.85;;;19.70;81.70;;;;;;5030450;28;20022;-73
2021/09/17 05:14:16;;;;;;;9.27;5.95;;;19.70;81.60;;;;;;5013005;28;20017;-73
2021/09/17 05:16:45;;;;;;;10.85;5.85;;;19.60;81.30;;;;;;5034166;28;20030;-73
2021/09/17 05:19:12;;;;;;;9.95;5.95;;;19.70;81.50;;;;;;5015818;28;20083;-73
2021/09/17 05:21:37;;;;;;;10.20;5.93;;;19.70;81.40;;;;;;5016199;28;20030;-73
2021/09/17 05:24:03;;;;;;;12.52;6.43;;;19.60;80.40;;;;;;5034121;28;20079;-73
2021/09/17 05:26:29;;;;;;;10.65;5.63;;;19.70;81.20;;;;;;5033660;28;20021;-73
2021/09/17 05:28:54;;;;;;;12.13;6.50;;;19.70;81.40;;;;;;5033861;28;20018;-73
2021/09/17 05:31:20;;;;;;;12.30;5.80;;;19.70;81.20;;;;;;5016144;28;20029;-73
2021/09/17 05:33:45;;;;;;;11.85;5.47;;;19.70;81.60;;;;;;5033501;28;20026;-74
2021/09/17 05:36:11;;;;;;;10.95;5.15;;;19.70;82.90;;;;;;5034014;28;20479;-73
2021/09/17 05:38:37;;;;;;;11.38;5.18;;;19.70;82.90;;;;;;5015910;28;20483;-73
2021/09/17 05:41:02;;;;;;;9.35;5.50;;;19.70;82.50;;;;;;5015727;28;20187;-72
2021/09/17 05:43:28;;;;;;;9.50;5.40;;;19.70;83.00;;;;;;5016086;28;20048;-73
2021/09/17 05:45:53;;;;;;;11.98;5.50;;;19.60;82.30;;;;;;5032704;28;20026;-74
2021/09/17 05:48:19;;;;;;;9.93;5.63;;;19.60;82.50;;;;;;5014236;28;20014;-73
2021/09/17 05:50:44;;;;;;;12.70;6.32;;;19.60;82.20;;;;;;5032412;28;20510;-73
2021/09/17 05:53:10;;;;;;;12.13;6.97;;;19.60;82.00;;;;;;5032884;28;20022;-72
2021/09/17 05:55:36;;;;;;;10.57;5.80;;;19.50;82.10;;;;;;5032373;28;20406;-73
2021/09/17 05:58:02;;;;;;;10.30;6.47;;;19.60;81.90;;;;;;5032716;28;20026;-74
2021/09/17 06:00:27;;;;;;;10.05;5.80;;;19.50;81.70;;;;;;5015379;28;20088;-72
2021/09/17 06:02:53;;;;;;;10.95;7.15;;;19.50;81.90;;;;;;5032844;28;20029;-73
2021/09/17 06:05:19;;;;;;;10.50;6.78;;;19.40;81.70;;;;;;5032072;28;20049;-73
2021/09/17 06:07:45;;;;;;;11.98;6.85;;;19.40;82.10;;;;;;5013517;28;20030;-73
2021/09/17 06:10:12;;;;;;;9.60;6.72;;;19.40;82.00;;;;;;4995113;28;20108;-72
2021/09/17 06:12:39;;;;;;;12.43;7.65;;;19.40;81.90;;;;;;4995791;28;20101;-73
2021/09/17 06:15:05;;;;;;;10.68;6.82;;;19.40;81.70;;;;;;5013352;28;20022;-73
2021/09/17 06:17:31;;;;;;;10.43;7.22;;;19.40;81.90;;;;;;5013019;28;20117;-73
2021/09/17 06:19:56;;;;;;;10.18;6.90;;;19.40;81.70;;;;;;4995435;28;20121;-72
2021/09/17 06:22:22;;;;;;;10.23;6.65;;;19.40;81.90;;;;;;4995514;28;20058;-73
2021/09/17 06:24:47;;;;;;;10.82;6.95;;;19.40;81.70;;;;;;5013124;28;20029;-73
2021/09/17 06:27:13;;;;;;;10.68;7.18;;;19.40;81.60;;;;;;4994950;28;20550;-72
2021/09/17 06:29:38;;;;;;;9.15;6.70;;;19.50;81.80;;;;;;4995486;28;20022;-73
2021/09/17 06:32:04;;;;;;;9.90;7.30;;;19.40;81.60;;;;;;4995581;28;20399;-72
2021/09/17 06:34:30;;;;;;;9.68;6.78;;;19.40;81.50;;;;;;4994855;28;20037;-73
2021/09/17 06:36:56;;;;;;;11.38;7.15;;;19.40;81.70;;;;;;4995664;28;20025;-73
2021/09/17 06:39:22;;;;;;;10.57;7.10;;;19.40;81.50;;;;;;4995091;28;20109;-73
2021/09/17 06:41:52;;;;;;;9.52;6.75;;;19.40;81.60;;;;;;5012122;28;20026;-73
2021/09/17 06:44:18;;;;;;;12.20;7.38;;;19.40;81.50;;;;;;5012824;28;20026;-73
2021/09/17 06:46:44;;;;;;;10.02;6.68;;;19.40;81.60;;;;;;4995265;28;20025;-72
2021/09/17 06:49:10;;;;;;;9.45;6.85;;;19.40;81.60;;;;;;4994558;28;20033;-72
2021/09/17 06:51:35;;;;;;;10.00;7.15;;;19.40;81.80;;;;;;5012831;28;20105;-73
2021/09/17 06:54:01;;;;;;;10.40;6.32;;;19.50;81.70;;;;;;4994953;28;20513;-73
2021/09/17 06:56:26;;;;;;;9.35;6.28;;;19.50;82.20;;;;;;4994599;28;20026;-72
2021/09/17 06:58:52;;;;;;;9.77;6.60;;;19.50;81.60;;;;;;4994920;28;20076;-72
2021/09/17 07:01:19;;;;;;;10.40;6.53;;;19.50;81.70;;;;;;5012448;28;20034;-72
2021/09/17 07:03:44;;;;;;;11.82;6.90;;;19.50;81.60;;;;;;5011969;28;20546;-73
2021/09/17 07:06:10;;;;;;;10.20;6.68;;;19.50;81.90;;;;;;5019482;28;20030;-72
2021/09/17 07:08:35;;;;;;;10.32;6.85;;;19.50;81.80;;;;;;5014072;28;20498;-72
2021/09/17 07:11:01;;;;;;;9.60;6.38;;;19.50;81.70;;;;;;5013923;28;20463;-72
2021/09/17 07:13:26;;;;;;;10.93;6.93;;;19.50;81.80;;;;;;5014519;28;20035;-72
2021/09/17 07:15:52;;;;;;;10.57;6.28;;;19.50;82.00;;;;;;5031967;28;20077;-73
2021/09/17 07:18:18;;;;;;;10.88;7.07;;;19.50;82.20;;;;;;5013653;28;20116;-73
2021/09/17 07:20:43;;;;;;;10.70;6.93;;;19.50;81.80;;;;;;5031941;28;20029;-73
2021/09/17 07:23:10;;;;;;;11.55;7.70;;;19.50;81.60;;;;;;5031607;28;20036;-72
2021/09/17 07:25:37;;;;;;;9.40;6.50;;;19.50;81.60;;;;;;5031274;28;20499;-72
2021/09/17 07:28:03;;;;;;;9.68;6.68;;;19.50;81.70;;;;;;5031574;28;20097;-72
2021/09/17 07:30:29;;;;;;;9.75;6.45;;;19.50;81.60;;;;;;5031769;28;20109;-72
2021/09/17 07:32:54;;;;;;;10.30;7.43;;;19.50;81.60;;;;;;5031227;28;20033;-73
2021/09/17 07:35:20;;;;;;;9.45;6.97;;;19.50;81.80;;;;;;5013913;28;20406;-73
2021/09/17 07:37:46;;;;;;;10.35;7.07;;;19.50;81.50;;;;;;5031008;28;20546;-73
2021/09/17 07:40:14;;;;;;;10.27;7.40;;;19.50;81.80;;;;;;5030934;28;20037;-73
2021/09/17 07:42:41;;;;;;;9.80;6.97;;;19.60;81.60;;;;;;5013679;28;20071;-72
2021/09/17 07:45:08;;;;;;;10.63;6.82;;;19.60;81.60;;;;;;5031371;28;20461;-73
2021/09/17 07:47:34;;;;;;;10.23;6.68;;;19.60;81.30;;;;;;5013318;28;20025;-73
2021/09/17 07:49:59;;;;;;;10.32;6.65;;;19.60;81.50;;;;;;5031122;28;20021;-73
2021/09/17 07:52:25;;;;;;;10.68;7.00;;;19.70;81.30;;;;;;5013861;28;20491;-73
2021/09/17 07:54:51;;;;;;;8.38;5.80;;;19.70;81.40;;;;;;5030803;28;20039;-73
2021/09/17 07:57:16;;;;;;;8.30;5.63;;;19.60;81.40;;;;;;5031317;28;20438;-73
2021/09/17 07:59:42;;;;;;;9.13;5.57;;;19.70;81.40;;;;;;5013361;28;20025;-72
2021/09/17 08:02:08;;;;;;;9.00;6.15;;;19.70;81.10;;;;;;5012929;28;20052;-72
2021/09/17 08:04:37;;;;;;;10.20;6.20;;;19.70;81.30;;;;;;5030727;28;20480;-73
2021/09/17 08:07:04;;;;;;;10.43;6.90;;;19.70;81.60;;;;;;4998686;28;20120;-72
2021/09/17 08:09:30;;;;;;;8.75;5.90;;;19.70;81.20;;;;;;5011021;28;20018;-73
2021/09/17 08:11:55;;;;;;;11.98;6.50;;;19.70;81.50;;;;;;5011395;28;20037;-73
2021/09/17 08:14:21;;;;;;;9.38;6.18;;;19.70;81.70;;;;;;5011368;28;20076;-73
2021/09/17 08:16:46;;;;;;;9.88;5.93;;;19.70;81.30;;;;;;5010845;28;20105;-73
2021/09/17 08:19:12;;;;;;;9.90;6.03;;;19.70;81.70;;;;;;4993563;28;20480;-73
2021/09/17 08:21:41;;;;;;;9.63;6.25;;;19.70;81.30;;;;;;4993491;28;20034;-73
2021/09/17 08:24:13;;;;;;;10.15;7.10;;;19.80;81.70;;;;;;4993239;28;20028;-73
2021/09/17 08:26:40;;;;;;;11.43;7.30;;;19.80;81.90;;;;;;5011401;28;20029;-73
2021/09/17 08:29:05;;;;;;;10.35;6.50;;;19.80;81.80;;;;;;5010972;28;20026;-73
2021/09/17 08:31:31;;;;;;;9.32;5.80;;;19.80;81.50;;;;;;5010739;28;20115;-73
2021/09/17 08:33:56;;;;;;;12.02;7.15;;;19.90;80.90;;;;;;5011309;28;20446;-73
2021/09/17 08:36:22;;;;;;;8.80;5.90;;;19.90;81.70;;;;;;5011126;28;20493;-73
2021/09/17 08:38:47;;;;;;;8.18;4.95;;;19.90;81.00;;;;;;5010571;28;20083;-73
2021/09/17 08:41:15;;;;;;;8.93;5.72;;;19.90;80.60;;;;;;4993465;28;20112;-73
2021/09/17 08:43:43;;;;;;;8.85;5.90;;;19.80;80.70;;;;;;4993343;28;20081;-73
2021/09/17 08:46:14;;;;;;;9.02;5.85;;;19.80;81.10;;;;;;5010815;28;20499;-72
2021/09/17 08:48:42;;;;;;;8.98;6.10;;;19.80;81.30;;;;;;4993165;28;20026;-73
2021/09/17 08:51:08;;;;;;;8.05;5.40;;;19.80;81.40;;;;;;4996319;28;20022;-73
2021/09/17 08:53:33;;;;;;;8.45;5.38;;;19.80;81.30;;;;;;5014295;28;20044;-73
2021/09/17 08:55:59;;;;;;;8.15;5.30;;;19.80;81.20;;;;;;4997320;28;20033;-73
2021/09/17 08:58:25;;;;;;;8.85;5.60;;;19.80;81.20;;;;;;5014393;28;20034;-73
2021/09/17 09:00:50;;;;;;;9.48;5.68;;;19.80;81.30;;;;;;4996882;28;20073;-73
2021/09/17 09:03:33;;;;;;;8.88;5.75;;;19.80;81.20;;;;;;4997017;28;20395;-72
2021/09/17 09:06:15;;;;;;;9.63;6.53;;;19.80;81.30;;;;;;5020075;28;20041;-73
2021/09/17 09:08:42;;;;;;;8.35;5.00;;;19.90;81.30;;;;;;5016011;28;20052;-72
2021/09/17 09:11:23;;;;;;;8.23;5.30;;;19.90;81.30;;;;;;5034561;28;20022;-73
2021/09/17 09:14:06;;;;;;;9.10;6.20;;;19.90;81.20;;;;;;5034573;28;20014;-72
2021/09/17 09:16:35;;;;;;;9.55;6.13;;;19.80;81.40;;;;;;5034008;28;20037;-73
2021/09/17 09:19:23;;;;;;;8.38;5.45;;;19.80;81.40;;;;;;5033856;28;20033;-73
2021/09/17 09:21:51;;;;;;;8.05;5.47;;;19.80;81.30;;;;;;5016529;28;20079;-73
2021/09/17 09:24:22;;;;;;;8.50;5.10;;;19.70;81.20;;;;;;5033802;28;20372;-73
2021/09/17 09:27:24;;;;;;;9.32;5.95;;;19.80;81.60;;;;;;5016786;28;20533;-72
2021/09/17 09:29:52;;;;;;;9.98;5.72;;;19.80;81.20;;;;;;4972549;28;20031;-73
2021/09/17 09:32:29;;;;;;;10.15;6.22;;;19.80;81.40;;;;;;5004774;28;20030;-73
2021/09/17 09:34:57;;;;;;;9.20;5.53;;;19.80;82.30;;;;;;5033829;28;20112;-73
2021/09/17 09:37:31;;;;;;;10.32;7.38;;;19.80;81.70;;;;;;5015701;28;20033;-72
2021/09/17 09:40:00;;;;;;;10.02;6.60;;;19.80;81.80;;;;;;5033746;28;20037;-73
2021/09/17 09:42:41;;;;;;;9.30;6.65;;;19.80;81.80;;;;;;5015856;28;20025;-73
2021/09/17 09:45:15;;;;;;;10.80;7.25;;;19.70;81.90;;;;;;5033235;28;20026;-73
2021/09/17 09:47:50;;;;;;;11.57;7.80;;;19.70;82.10;;;;;;5015919;28;20028;-73
2021/09/17 09:50:24;;;;;;;12.05;7.45;;;19.70;82.30;;;;;;5015880;28;20029;-73
2021/09/17 09:52:51;;;;;;;14.15;8.57;;;19.70;81.90;;;;;;5033264;28;20025;-72
2021/09/17 09:55:17;;;;;;;11.77;7.85;;;19.70;82.30;;;;;;5033542;28;20060;-73
2021/09/17 09:57:43;;;;;;;11.45;7.82;;;19.60;82.10;;;;;;5033507;28;20475;-73
2021/09/17 10:00:11;;;;;;;11.57;6.80;;;19.70;82.20;;;;;;5014764;28;20025;-73
2021/09/17 10:02:37;;;;;;;12.73;8.05;;;19.80;82.00;;;;;;5032940;28;20021;-72
2021/09/17 10:05:05;;;;;;;12.25;8.45;;;19.70;82.00;;;;;;5015452;28;20410;-72
2021/09/17 10:07:31;;;;;;;11.70;8.35;;;19.70;82.10;;;;;;4996584;28;20026;-72
2021/09/17 10:09:57;;;;;;;11.48;8.25;;;19.70;82.30;;;;;;5013280;28;20084;-73
2021/09/17 10:12:24;;;;;;;13.23;8.32;;;19.70;82.30;;;;;;5013403;28;20392;-75
2021/09/17 10:14:50;;;;;;;11.80;8.32;;;19.60;82.40;;;;;;4995261;28;20040;-73
2021/09/17 10:17:22;;;;;;;10.63;8.07;;;19.60;82.40;;;;;;4995886;28;20022;-73
2021/09/17 10:19:49;;;;;;;9.70;6.30;;;19.70;82.30;;;;;;5013242;28;20026;-73
2021/09/17 10:22:39;;;;;;;10.32;7.43;;;19.80;81.70;;;;;;4995062;28;20026;-73
2021/09/17 10:25:15;;;;;;;12.13;8.05;;;19.90;81.60;;;;;;4995538;28;20025;-73
2021/09/17 10:27:47;;;;;;;9.73;6.25;;;19.80;82.00;;;;;;4995827;28;20030;-73
2021/09/17 10:30:15;;;;;;;10.30;7.28;;;19.80;81.70;;;;;;4995076;28;20036;-72
2021/09/17 10:32:47;;;;;;;9.07;6.22;;;19.90;81.40;;;;;;4995612;28;20149;-73
2021/09/17 10:35:22;;;;;;;10.63;7.47;;;20.00;81.00;;;;;;5013122;28;20028;-73
2021/09/17 10:38:06;;;;;;;12.88;7.82;;;20.00;81.00;;;;;;4994877;28;20345;-73
2021/09/17 10:40:54;;;;;;;10.00;7.47;;;20.00;81.10;;;;;;5013149;28;20514;-73
2021/09/17 10:43:26;;;;;;;10.10;7.28;;;20.00;80.90;;;;;;5012841;28;20036;-73
2021/09/17 10:45:56;;;;;;;8.88;6.35;;;20.10;80.90;;;;;;5012173;28;20045;-73
2021/09/17 10:48:52;;;;;;;10.63;7.78;;;20.10;80.50;;;;;;4994998;28;20028;-73
2021/09/17 10:51:32;;;;;;;13.93;10.35;;;20.10;81.20;;;;;;4994909;28;20045;-73
2021/09/17 10:54:03;;;;;;;10.75;8.15;;;19.90;81.60;;;;;;4994884;28;20072;-73
2021/09/17 10:56:49;;;;;;;13.73;10.15;;;19.90;81.40;;;;;;5012705;28;20022;-72
2021/09/17 10:59:24;;;;;;;16.13;9.95;;;19.90;80.90;;;;;;4994166;28;20030;-73
2021/09/17 11:01:54;;;;;;;11.95;8.40;;;19.80;81.50;;;;;;5012385;28;20018;-73
2021/09/17 11:04:30;;;;;;;9.93;6.95;;;19.90;81.60;;;;;;5011897;28;20486;-73
2021/09/17 11:07:16;;;;;;;10.70;7.35;;;19.90;81.10;;;;;;5025857;28;20021;-73
2021/09/17 11:09:44;;;;;;;10.95;8.00;;;19.90;80.80;;;;;;5032055;28;20028;-72
2021/09/17 11:12:30;;;;;;;10.38;6.70;;;19.90;80.80;;;;;;5013770;28;20033;-72
2021/09/17 11:15:17;;;;;;;10.63;8.10;;;20.00;80.80;;;;;;5013843;28;20523;-73
2021/09/17 11:17:48;;;;;;;9.88;7.20;;;19.90;81.60;;;;;;5014388;28;20060;-73
2021/09/17 11:20:23;;;;;;;9.80;6.80;;;20.00;81.20;;;;;;5014334;28;20390;-73
2021/09/17 11:23:07;;;;;;;12.13;9.60;;;20.10;80.70;;;;;;5013500;28;20033;-73
2021/09/17 11:25:44;;;;;;;10.63;7.72;;;20.10;80.80;;;;;;5032068;28;20462;-73
2021/09/17 11:28:28;;;;;;;9.25;6.28;;;20.10;80.60;;;;;;5014075;28;20726;-73
2021/09/17 11:31:07;;;;;;;12.75;10.10;;;20.10;80.50;;;;;;5014122;28;20056;-73
2021/09/17 11:33:32;;;;;;;11.82;7.95;;;20.00;80.80;;;;;;5014009;28;20039;-73
2021/09/17 11:35:58;;;;;;;10.68;8.45;;;20.00;81.00;;;;;;5013400;28;20025;-73
2021/09/17 11:38:24;;;;;;;10.90;8.13;;;20.10;81.20;;;;;;5013659;28;20030;-74
2021/09/17 11:40:52;;;;;;;13.43;10.35;;;20.20;80.30;;;;;;5013852;28;20044;-73
2021/09/17 11:43:17;;;;;;;13.35;9.52;;;20.20;80.00;;;;;;5030957;28;20022;-73
2021/09/17 11:45:47;;;;;;;9.60;7.32;;;20.10;80.50;;;;;;5013643;28;20021;-73
2021/09/17 11:48:19;;;;;;;10.55;7.45;;;20.30;80.40;;;;;;5031324;28;20035;-73
2021/09/17 11:50:45;;;;;;;10.02;7.20;;;20.30;79.90;;;;;;5013254;28;20132;-73
2021/09/17 11:53:10;;;;;;;10.40;7.82;;;20.30;79.50;;;;;;5013780;28;20069;-73
2021/09/17 11:55:36;;;;;;;9.57;7.45;;;20.40;79.60;;;;;;5031338;28;20044;-73
2021/09/17 11:58:01;;;;;;;9.32;6.90;;;20.30;79.50;;;;;;5030642;28;20029;-73
2021/09/17 12:00:29;;;;;;;13.73;8.90;;;20.30;79.80;;;;;;5031198;28;20418;-73
2021/09/17 12:03:05;;;;;;;9.68;6.75;;;20.20;80.60;;;;;;5013417;28;20029;-72
2021/09/17 12:05:34;;;;;;;9.55;6.95;;;20.10;80.40;;;;;;5010286;28;20022;-73
2021/09/17 12:08:00;;;;;;;8.52;6.40;;;20.20;80.30;;;;;;4993619;28;20018;-73
2021/09/17 12:10:37;;;;;;;11.18;7.68;;;20.20;80.30;;;;;;4993625;28;20022;-73
2021/09/17 12:13:14;;;;;;;9.63;6.90;;;20.20;80.20;;;;;;4993488;28;20072;-73
2021/09/17 12:15:42;;;;;;;12.43;9.05;;;20.20;80.00;;;;;;4993820;28;20034;-73
2021/09/17 12:18:16;;;;;;;11.70;9.07;;;20.10;80.10;;;;;;4993609;28;20026;-73
2021/09/17 12:20:49;;;;;;;11.50;8.63;;;20.10;80.70;;;;;;5011123;28;20546;-74
2021/09/17 12:23:18;;;;;;;10.05;7.53;;;20.00;80.70;;;;;;5011440;28;20025;-73
2021/09/17 12:25:44;;;;;;;9.35;7.03;;;20.00;81.00;;;;;;5000304;28;20025;-73
2021/09/17 12:28:17;;;;;;;8.75;6.18;;;20.00;80.70;;;;;;5017149;28;20025;-73
2021/09/17 12:30:43;;;;;;;9.57;7.03;;;20.00;80.60;;;;;;5005768;28;20029;-73
2021/09/17 12:33:19;;;;;;;11.30;6.57;;;20.10;80.50;;;;;;5018928;28;20149;-72
2021/09/17 12:35:47;;;;;;;10.18;7.95;;;20.00;80.70;;;;;;5017362;28;20525;-73
2021/09/17 12:38:15;;;;;;;10.25;6.88;;;20.00;81.20;;;;;;5017602;28;20141;-73
2021/09/17 12:40:43;;;;;;;8.45;6.40;;;20.00;81.30;;;;;;5021685;28;20029;-73
2021/09/17 12:43:12;;;;;;;10.10;7.03;;;20.00;81.10;;;;;;5035312;28;20446;-74
2021/09/17 12:45:42;;;;;;;16.08;12.65;;;20.00;81.30;;;;;;5018510;28;20477;-73